Data for 06/18/2009

Time Sea-Level Adjusted Pressure Absolute Pressure Temperature Relative Humidity Dew Point   
(mb) (inHg) (mb) (inHg) (C) (F) (%) (C) (F)
00:05 1015 29.97 844 24.92 10.9 51.7 86 8.7 47.7
00:10 1015 29.97 844 24.92 10.9 51.6 85 8.5 47.3
00:15 1014 29.94 844 24.92 10.9 51.6 84 8.3 46.9
00:20 1014 29.94 844 24.92 10.8 51.4 85 8.4 47.1
00:25 1014 29.94 844 24.92 10.7 51.3 85 8.2 46.8
00:30 1014 29.94 844 24.92 10.8 51.4 85 8.3 46.9
00:35 1014 29.94 843 24.89 10.8 51.5 82 7.8 46.1
00:40 1014 29.94 844 24.92 10.9 51.6 81 7.8 46.1
00:45 1014 29.94 844 24.92 10.9 51.7 82 7.9 46.2
00:50 1014 29.94 844 24.92 10.9 51.6 83 8.1 46.5
00:55 1014 29.94 844 24.92 10.8 51.4 85 8.4 47.1
01:00 1014 29.94 844 24.92 10.5 51 87 8.5 47.2
01:05 1014 29.94 844 24.92 10.5 50.8 88 8.5 47.4
01:10 1014 29.94 844 24.92 10.4 50.7 88 8.5 47.3
01:15 1014 29.94 843 24.89 10.4 50.7 90 8.9 48
01:20 1014 29.94 843 24.89 10.3 50.5 89 8.6 47.4
01:25 1014 29.94 843 24.89 10.3 50.6 90 8.8 47.8
01:30 1014 29.94 843 24.89 10.3 50.6 90 8.7 47.7
01:35 1014 29.94 843 24.89 10.4 50.7 91 9 48.1
01:40 1014 29.94 843 24.89 10.6 51.1 91 9.3 48.7
01:45 1014 29.94 844 24.92 10.7 51.2 91 9.3 48.8
01:50 1014 29.94 844 24.92 10.7 51.3 91 9.3 48.8
01:55 1015 29.97 844 24.92 10.7 51.3 92 9.4 49
02:00 1014 29.94 844 24.92 10.6 51.1 91 9.3 48.7
02:05 1014 29.94 844 24.92 10.4 50.6 91 8.9 48.1
02:10 1015 29.97 844 24.92 10.4 50.8 92 9.1 48.5
02:15 1015 29.97 844 24.92 10.6 51.1 92 9.4 49
02:20 1015 29.97 844 24.92 10.6 51.1 91 9.3 48.7
02:25 1014 29.94 844 24.92 10.7 51.2 87 8.6 47.6
02:30 1014 29.94 844 24.92 10.9 51.5 87 8.8 47.9
02:35 1015 29.97 844 24.92 10.8 51.4 83 8 46.4
02:40 1015 29.97 844 24.92 10.8 51.4 84 8.2 46.8
02:45 1015 29.97 844 24.92 10.7 51.2 86 8.4 47.1
02:50 1015 29.97 844 24.92 10.7 51.2 85 8.3 46.9
02:55 1015 29.97 844 24.92 10.7 51.2 85 8.3 47
03:00 1015 29.97 844 24.92 10.6 51.1 87 8.5 47.4
03:05 1015 29.97 844 24.92 10.6 51.1 86 8.3 46.9
03:10 1015 29.97 844 24.92 10.6 51 87 8.5 47.2
03:15 1014 29.94 844 24.92 10.5 50.9 87 8.5 47.2
03:20 1014 29.94 844 24.92 10.5 50.8 87 8.4 47.2
03:25 1014 29.94 844 24.92 10.4 50.8 88 8.6 47.5
03:30 1014 29.94 844 24.92 10.5 50.8 89 8.7 47.6
03:35 1014 29.94 843 24.89 10.5 50.9 89 8.7 47.7
03:40 1014 29.94 843 24.89 10.5 50.9 88 8.6 47.4
03:45 1014 29.94 843 24.89 10.5 50.9 88 8.6 47.5
03:50 1014 29.94 843 24.89 10.5 50.9 88 8.6 47.4
03:55 1014 29.94 843 24.89 10.4 50.8 88 8.5 47.3
04:00 1014 29.94 843 24.89 10.4 50.8 87 8.4 47
04:05 1014 29.94 843 24.89 10.4 50.7 86 8.2 46.8
04:10 1014 29.94 843 24.89 10.4 50.8 87 8.4 47.1
04:15 1014 29.94 843 24.89 10.4 50.7 86 8.1 46.7
04:20 1014 29.94 843 24.89 10.4 50.6 87 8.2 46.8
04:25 1014 29.94 843 24.89 10.4 50.7 87 8.4 47.1
04:30 1014 29.94 843 24.89 10.3 50.6 87 8.3 46.9
04:35 1014 29.94 843 24.89 10.3 50.5 87 8.3 46.9
04:40 1014 29.94 843 24.89 10.2 50.4 87 8.2 46.8
04:45 1014 29.94 843 24.89 10.1 50.2 85 7.7 45.9
04:50 1014 29.94 843 24.89 10.1 50.2 85 7.7 45.8
04:55 1014 29.94 843 24.89 10.1 50.2 85 7.7 45.9
05:00 1014 29.94 844 24.92 10.1 50.2 85 7.6 45.8
05:05 1014 29.94 844 24.92 10.1 50.3 88 8.2 46.8
05:10 1014 29.94 844 24.92 10.2 50.3 90 8.6 47.4
05:15 1015 29.97 844 24.92 10.1 50.2 87 8.1 46.5
05:20 1015 29.97 844 24.92 10.2 50.3 87 8.2 46.7
05:25 1015 29.97 844 24.92 10.2 50.4 86 8.1 46.6
05:30 1015 29.97 844 24.92 10.3 50.6 88 8.4 47.1
05:35 1015 29.97 844 24.92 10.4 50.7 88 8.5 47.3
05:40 1015 29.97 844 24.92 10.4 50.7 88 8.5 47.2
05:45 1015 29.97 844 24.92 10.4 50.7 86 8.2 46.8
05:50 1015 29.97 844 24.92 10.4 50.7 83 7.6 45.7
05:55 1015 29.97 844 24.92 10.5 50.8 83 7.7 45.8
06:00 1015 29.97 844 24.92 10.5 50.8 84 7.8 46.1
06:05 1015 29.97 844 24.92 10.4 50.8 84 7.9 46.3
06:10 1015 29.97 844 24.92 10.5 50.8 84 7.8 46.1
06:15 1015 29.97 844 24.92 10.5 50.9 84 8 46.3
06:20 1015 29.97 844 24.92 10.6 51.2 82 7.8 46
06:25 1015 29.97 844 24.92 10.7 51.3 82 7.9 46.1
06:30 1015 29.97 844 24.92 10.8 51.4 81 7.7 45.9
06:35 1015 29.97 844 24.92 10.8 51.5 82 7.8 46
06:40 1015 29.97 844 24.92 10.8 51.5 81 7.6 45.8
06:45 1015 29.97 844 24.92 10.8 51.5 83 8.1 46.5
06:50 1015 29.97 844 24.92 10.9 51.7 82 8 46.4
06:55 1015 29.97 844 24.92 11.1 51.9 81 7.9 46.2
07:00 1015 29.97 844 24.92 11.1 52 78 7.5 45.5
07:05 1015 29.97 844 24.92 11.2 52.2 78 7.6 45.7
07:10 1015 29.97 845 24.95 11.5 52.6 77 7.5 45.5
07:15 1015 29.97 844 24.92 11.6 52.9 78 7.9 46.2
07:20 1015 29.97 845 24.95 11.8 53.3 76 7.8 46
07:25 1015 29.97 845 24.95 11.8 53.2 77 8 46.3
07:30 1015 29.97 845 24.95 11.7 53.1 78 7.9 46.3
07:35 1015 29.97 845 24.95 11.9 53.5 76 7.9 46.2
07:40 1015 29.97 845 24.95 12 53.6 73 7.4 45.4
07:45 1015 29.97 845 24.95 12 53.7 75 7.7 45.8
07:50 1015 29.97 845 24.95 12.2 54 76 8 46.5
07:55 1016 30 845 24.95 12.4 54.2 74 7.8 46.1
08:00 1016 30 845 24.95 12.4 54.3 75 8 46.4
08:05 1016 30 845 24.95 12.5 54.5 74 8 46.5
08:10 1016 30 845 24.95 12.6 54.7 74 8.1 46.5
08:15 1016 30 845 24.95 12.8 55 73 8.1 46.5
08:20 1016 30 845 24.95 13.1 55.7 70 7.9 46.2
08:25 1016 30 845 24.95 13.1 55.5 71 7.9 46.3
08:30 1016 30 845 24.95 13 55.3 69 7.6 45.6
08:35 1016 30 845 24.95 12.9 55.1 71 7.8 46
08:40 1016 30 845 24.95 12.9 55.2 68 7.3 45.1
08:45 1016 30 845 24.95 13 55.4 68 7.3 45.1
08:50 1016 30 845 24.95 13 55.5 69 7.6 45.6
08:55 1016 30 845 24.95 13.1 55.5 70 7.7 45.9
09:00 1016 30 845 24.95 13.1 55.7 68 7.4 45.3
09:05 1016 30 845 24.95 13.1 55.6 68 7.3 45.1
09:10 1016 30 845 24.95 13.1 55.5 67 7.2 45
09:15 1016 30 845 24.95 13.1 55.6 67 7.2 44.9
09:20 1016 30 845 24.95 13.1 55.5 66 7 44.6
09:25 1016 30 845 24.95 13 55.4 65 6.7 44
09:30 1016 30 845 24.95 13 55.4 66 6.8 44.2
09:35 1016 30 845 24.95 13.1 55.6 67 7.2 44.9
09:40 1016 30 845 24.95 13.3 55.9 65 7 44.5
09:45 1016 30 845 24.95 13.5 56.4 66 7.4 45.3
09:50 1016 30 845 24.95 13.9 57 65 7.5 45.4
09:55 1016 30 845 24.95 14.2 57.5 63 7.3 45.1
10:00 1016 30 845 24.95 14.3 57.8 62 7.2 44.9
10:05 1016 30 845 24.95 14.4 57.8 62 7.3 45.2
10:10 1016 30 845 24.95 14.3 57.7 63 7.4 45.2
10:15 1016 30 845 24.95 15.2 59.4 59 7.3 45.1
10:20 1016 30 845 24.95 16.1 60.9 55 7.2 45
10:25 1016 30 845 24.95 15.2 59.4 60 7.5 45.5
10:30 1016 30 845 24.95 14.8 58.6 58 6.6 43.8
10:35 1016 30 845 24.95 14.7 58.5 58 6.5 43.8
10:40 1016 30 845 24.95 15.4 59.7 53 6.1 42.9
10:45 1016 30 845 24.95 15.9 60.5 50 5.4 41.8
10:50 1016 30 845 24.95 15.9 60.7 50 5.5 41.8
10:55 1016 30 845 24.95 16.6 61.8 48 5.7 42.3
11:00 1016 30 845 24.95 16.8 62.3 48 5.7 42.3
11:05 1016 30 845 24.95 17.4 63.2 44 5.2 41.3
11:10 1016 30 845 24.95 17.2 63 43 4.5 40.1
11:15 1016 30 845 24.95 17.4 63.3 43 4.9 40.9
11:20 1016 30 845 24.95 18 64.3 43 5.3 41.6
11:25 1016 30 845 24.95 17.7 63.9 41 4.3 39.8
11:30 1016 30 845 24.95 17 62.5 47 5.8 42.4
11:35 1016 30 845 24.95 16.6 61.9 47 5.2 41.4
11:40 1016 30 845 24.95 16.2 61.2 48 5.3 41.6
11:45 1016 30 845 24.95 15.9 60.6 48 5.1 41.2
11:50 1016 30 845 24.95 16.4 61.4 45 4.5 40.2
11:55 1016 30 845 24.95 17.1 62.8 42 4.3 39.7
12:00 1016 30 845 24.95 17.3 63.2 43 4.8 40.7
12:05 1016 30 845 24.95 17.9 64.2 40 4.3 39.7
12:10 1016 30 845 24.95 18.2 64.7 40 4.4 39.9
12:15 1016 30 845 24.95 17.6 63.7 44 5.2 41.3
12:20 1016 30 845 24.95 17.4 63.3 43 4.9 40.8
12:25 1016 30 845 24.95 17.8 64 43 5.2 41.4
12:30 1016 30 845 24.95 17.5 63.5 42 4.7 40.5
12:35 1016 30 845 24.95 17.9 64.2 41 4.6 40.2
12:40 1016 30 845 24.95 17.7 63.8 46 6 42.8
12:45 1016 30 845 24.95 17.5 63.6 46 5.9 42.6
12:50 1016 30 845 24.95 18 64.5 42 4.9 40.9
12:55 1016 30 845 24.95 18.6 65.5 39 4.5 40
13:00 1016 30 845 24.95 19.1 66.5 42 5.9 42.6
13:05 1016 30 845 24.95 18 64.4 45 6 42.8
13:10 1016 30 845 24.95 17.7 63.9 41 4.3 39.8
13:15 1016 30 845 24.95 18 64.5 43 5.3 41.5
13:20 1016 30 845 24.95 16.9 62.4 52 7.2 45
13:25 1016 30 845 24.95 15.2 59.4 56 6.7 44
13:30 1016 30 845 24.95 15.7 60.2 53 6.1 43
13:35 1016 30 845 24.95 16.2 61.1 52 6.4 43.6
13:40 1016 30 845 24.95 15.5 59.9 54 6.4 43.5
13:45 1016 30 845 24.95 15.6 60.1 50 5.4 41.7
13:50 1016 30 845 24.95 16 60.8 50 5.6 42.2
13:55 1016 30 845 24.95 17.3 63.1 44 4.9 40.7
14:00 1016 30 845 24.95 18.2 64.7 42 5.3 41.5
14:05 1016 30 845 24.95 18.1 64.6 42 5.1 41.2
14:10 1016 30 845 24.95 17.7 63.9 43 5.2 41.3
14:15 1016 30 845 24.95 18.4 65.2 41 5 41
14:20 1016 30 845 24.95 18.6 65.5 42 5.7 42.2
14:25 1016 30 845 24.95 17.9 64.3 44 5.6 42.1
14:30 1015 29.97 845 24.95 18.5 65.4 41 5.2 41.3
14:35 1015 29.97 845 24.95 18.4 65.1 42 5.5 41.9
14:40 1016 30 845 24.95 18.3 64.9 42 5.4 41.7
14:45 1016 30 845 24.95 18.3 65 42 5.3 41.5
14:50 1016 30 845 24.95 18.5 65.2 41 5 41
14:55 1016 30 845 24.95 19.1 66.4 39 4.9 40.7
15:00 1015 29.97 845 24.95 18.8 65.8 41 5.3 41.5
15:05 1015 29.97 845 24.95 18.2 64.7 45 6 42.8
15:10 1015 29.97 845 24.95 16.7 62 47 5.5 41.9
15:15 1015 29.97 845 24.95 17 62.7 45 5.1 41.2
15:20 1015 29.97 845 24.95 17.7 63.9 43 5.2 41.4
15:25 1015 29.97 845 24.95 18.3 64.9 41 5 41
15:30 1015 29.97 845 24.95 18.2 64.8 43 5.5 41.9
15:35 1015 29.97 845 24.95 18.7 65.6 40 5 41
15:40 1015 29.97 845 24.95 18.8 65.8 41 5.3 41.6
15:45 1015 29.97 845 24.95 18.8 65.8 42 5.8 42.5
15:50 1015 29.97 845 24.95 19.3 66.7 40 5.5 41.9
15:55 1015 29.97 845 24.95 19.1 66.3 41 5.6 42
16:00 1015 29.97 845 24.95 18.9 65.9 41 5.4 41.7
16:05 1015 29.97 845 24.95 19.3 66.7 39 5.1 41.2
16:10 1015 29.97 845 24.95 19.3 66.7 40 5.5 41.8
16:15 1015 29.97 845 24.95 19.1 66.3 41 5.5 41.9
16:20 1015 29.97 845 24.95 18.5 65.2 43 5.7 42.3
16:25 1015 29.97 845 24.95 18.8 65.9 37 4.1 39.3
16:30 1015 29.97 844 24.92 17.7 63.8 42 4.8 40.7
16:35 1015 29.97 844 24.92 17.6 63.6 42 4.5 40.1
16:40 1015 29.97 844 24.92 17.9 64.2 44 5.5 41.8
16:45 1015 29.97 844 24.92 16.9 62.4 48 6.1 42.9
16:50 1015 29.97 844 24.92 16.3 61.4 47 5.1 41.3
16:55 1015 29.97 844 24.92 16.6 61.8 45 4.6 40.3
17:00 1015 29.97 844 24.92 16.8 62.3 44 4.7 40.5
17:05 1015 29.97 844 24.92 16.6 61.9 50 6.2 43.2
17:10 1015 29.97 844 24.92 16.6 61.8 46 5.1 41.3
17:15 1015 29.97 844 24.92 17.1 62.7 43 4.6 40.2
17:20 1015 29.97 844 24.92 17.1 62.8 42 4.3 39.7
17:25 1015 29.97 844 24.92 16.9 62.5 44 4.6 40.2
17:30 1015 29.97 844 24.92 17.1 62.8 39 3.3 37.9
17:35 1015 29.97 844 24.92 17.1 62.7 41 3.8 38.8
17:40 1015 29.97 844 24.92 17.3 63.2 39 3.3 37.9
17:45 1015 29.97 844 24.92 17.9 64.2 37 3.2 37.7
17:50 1015 29.97 844 24.92 18.4 65.1 35 2.7 36.9
17:55 1015 29.97 844 24.92 18.4 65.1 38 3.8 38.8
18:00 1015 29.97 844 24.92 18.1 64.6 37 3.3 38
18:05 1015 29.97 844 24.92 18.5 65.3 34 2.6 36.7
18:10 1015 29.97 844 24.92 18.3 64.9 39 4.1 39.4
18:15 1015 29.97 844 24.92 18 64.3 37 3.1 37.6
18:20 1015 29.97 844 24.92 17.8 64.1 39 3.9 39.1
18:25 1015 29.97 844 24.92 18 64.5 39 4 39.2
18:30 1015 29.97 844 24.92 18.6 65.4 36 3.5 38.3
18:35 1015 29.97 844 24.92 18.3 65 36 3.3 37.9
18:40 1015 29.97 844 24.92 18.6 65.4 37 3.6 38.4
18:45 1015 29.97 844 24.92 18.8 65.9 35 3.3 37.9
18:50 1015 29.97 844 24.92 19.1 66.4 34 3.2 37.8
18:55 1015 29.97 844 24.92 19 66.3 37 4.1 39.3
19:00 1015 29.97 844 24.92 19.1 66.3 36 3.6 38.6
19:05 1015 29.97 844 24.92 18.7 65.6 37 4 39.1
19:10 1015 29.97 844 24.92 19.1 66.4 36 3.8 38.8
19:15 1015 29.97 844 24.92 19.4 66.8 34 3.4 38.2
19:20 1015 29.97 844 24.92 18.7 65.6 38 4.2 39.6
19:25 1015 29.97 844 24.92 18.2 64.7 39 4.1 39.5
19:30 1015 29.97 844 24.92 18.1 64.5 43 5.3 41.6
19:35 1015 29.97 844 24.92 17.6 63.7 43 5 41
19:40 1015 29.97 844 24.92 17.6 63.6 42 4.7 40.5
19:45 1015 29.97 844 24.92 17.5 63.5 43 4.9 40.8
19:50 1015 29.97 844 24.92 17.5 63.4 42 4.7 40.5
19:55 1015 29.97 844 24.92 17.7 63.9 43 4.9 40.9
20:00 1015 29.97 844 24.92 17.9 64.1 43 5.1 41.2
20:05 1015 29.97 844 24.92 17.9 64.2 43 5.4 41.7
20:10 1015 29.97 844 24.92 17.4 63.3 47 6.2 43.1
20:15 1015 29.97 844 24.92 16.9 62.3 49 6.3 43.3
20:20 1015 29.97 844 24.92 16.7 62.1 49 6.1 43
20:25 1015 29.97 844 24.92 16.5 61.8 52 6.7 44
20:30 1015 29.97 844 24.92 16.3 61.3 53 6.7 44
20:35 1015 29.97 844 24.92 16.2 61.1 53 6.7 44.1
20:40 1015 29.97 844 24.92 16.1 60.9 56 7.3 45.2
20:45 1015 29.97 844 24.92 15.8 60.4 60 8.1 46.5
20:50 1015 29.97 844 24.92 15.5 59.8 60 7.9 46.1
20:55 1015 29.97 844 24.92 15.2 59.3 61 7.8 46.1
21:00 1015 29.97 844 24.92 15.3 59.5 60 7.5 45.6
21:05 1015 29.97 844 24.92 15.1 59.3 59 7.2 44.9
21:10 1015 29.97 844 24.92 15.1 59.3 57 6.9 44.4
21:15 1015 29.97 844 24.92 15 58.9 62 7.7 45.9
21:20 1015 29.97 844 24.92 14.6 58.3 60 7 44.7
21:25 1015 29.97 844 24.92 14.4 57.9 61 7.1 44.8
21:30 1015 29.97 844 24.92 14.3 57.8 60 6.8 44.2
21:35 1015 29.97 844 24.92 14.3 57.8 57 5.9 42.7
21:40 1015 29.97 844 24.92 14.2 57.6 57 5.9 42.5
21:45 1015 29.97 844 24.92 14 57.3 57 5.7 42.3
21:50 1015 29.97 844 24.92 13.8 56.9 57 5.6 42
21:55 1015 29.97 844 24.92 13.6 56.5 59 5.9 42.6
22:00 1015 29.97 845 24.95 13.1 55.7 66 6.9 44.5
22:05 1015 29.97 845 24.95 12.5 54.5 66 6.3 43.4
22:10 1015 29.97 845 24.95 12.4 54.4 64 5.8 42.4
22:15 1016 30 845 24.95 12.5 54.6 63 5.7 42.3
22:20 1016 30 845 24.95 12.6 54.7 62 5.6 42.1
22:25 1016 30 845 24.95 12.5 54.6 64 5.9 42.7
22:30 1016 30 845 24.95 12.4 54.2 65 6 42.9
22:35 1016 30 845 24.95 12.2 54 66 6 42.8
22:40 1016 30 845 24.95 12.2 53.9 66 6 42.8
22:45 1016 30 845 24.95 12 53.7 66 6 42.7
22:50 1016 30 845 24.95 12 53.6 67 6.2 43.1
22:55 1016 30 845 24.95 11.9 53.4 67 6 42.9
23:00 1016 30 845 24.95 11.8 53.2 67 5.9 42.6
23:05 1015 29.97 845 24.95 11.7 53 67 5.8 42.4
23:10 1015 29.97 845 24.95 11.6 52.8 68 5.9 42.6
23:15 1015 29.97 845 24.95 11.4 52.5 68 5.7 42.3
23:20 1015 29.97 845 24.95 11.5 52.6 67 5.7 42.2
23:25 1015 29.97 845 24.95 11.4 52.5 68 5.8 42.5
23:30 1015 29.97 845 24.95 11.4 52.4 68 5.8 42.4
23:35 1015 29.97 845 24.95 11.4 52.5 68 5.7 42.2
23:40 1015 29.97 845 24.95 11.3 52.4 69 5.8 42.5
23:45 1015 29.97 845 24.95 11 51.8 70 5.8 42.5
23:50 1015 29.97 845 24.95 10.7 51.3 70 5.6 42.1
23:55 1015 29.97 845 24.95 10.6 51.2 70 5.5 41.9
24:00 1015 29.97 845 24.95 10.6 51.2 70 5.5 41.9